Latest Coastal Weather Observations for Legendre Island

IDW60701

Issued at 5:35 pm WST Wednesday 22 October 2014 (issued every 10 minutes, with the page automatically refreshed every 10 minutes)

About coastal observations | Map of coastal stations | Coastal observations for WA | Marine services | Other Formats
Station Details ID: 004095 Name: LEGENDRE ISLAND Lat: -20.36 Lon: 116.84 Height: 29.0 m
Data from the previous 72 hours. | See also: Recent months for locations in Western Australia
Date/Time
WST
Temp

°C
Wind Pressure Rain
since 9am
mm
Weather Cloud Vis
km
Sea
Height
m
Swell
Dir
 
Speed
knots
Gust
knots
hPa Trend Height
m
Period
s
Dir
22/05:30pm 27.6 SW 16 20 1010.7 - - - - - - - - -
22/05:00pm 27.4 WSW 19 23 1010.5 - - - - - - - - -
22/04:30pm 28.3 WSW 19 24 1010.5 - - - - - - - - -
22/04:00pm 29.0 WSW 20 25 1010.6 - - - - - - - - -
22/03:30pm 29.4 WSW 20 24 1010.5 - - - - - - - - -
22/03:00pm 29.0 WSW 23 27 1010.4 - - - - - - - - -
22/02:30pm 30.1 WSW 21 25 1010.5 - - - - - - - - -
22/02:00pm 29.4 WSW 21 25 1011.0 - - - - - - - - -
22/01:30pm 29.9 WSW 14 18 1012.0 - - - - - - - - -
22/01:00pm 29.1 WSW 13 16 1012.6 - - - - - - - - -
22/12:30pm 29.4 WSW 12 14 1013.2 - - - - - - - - -
22/12:00pm 30.1 WSW 13 16 1013.4 - - - - - - - - -
22/11:30am 29.1 WSW 15 17 1013.8 - - - - - - - - -
22/11:00am 29.4 WSW 12 14 1014.1 - - - - - - - - -
22/10:30am 29.2 WSW 13 15 1014.5 - - - - - - - - -
22/10:00am 28.5 WSW 14 16 1014.4 - - - - - - - - -
22/09:30am 28.3 WSW 13 16 1014.8 - - - - - - - - -
22/09:00am 28.9 WSW 12 14 1014.7 - - - - - - - - -
22/08:30am 28.3 SSW 7 9 1014.9 - - - - - - - - -
22/08:00am 27.6 SW 12 15 1014.1 - - - - - - - - -
22/07:30am 26.8 SW 12 16 1013.8 - - - - - - - - -
22/07:00am 25.9 SSW 13 17 1013.4 - - - - - - - - -
22/06:30am 25.0 SW 12 14 1013.5 - - - - - - - - -
22/06:00am 23.9 SW 13 14 1013.3 - - - - - - - - -
22/05:30am 23.6 SW 14 16 1013.0 - - - - - - - - -
22/05:00am 23.8 SW 14 16 1013.0 - - - - - - - - -
22/04:30am 23.8 SSW 14 16 1012.8 - - - - - - - - -
22/04:00am 24.0 SSW 15 17 1012.6 - - - - - - - - -
22/03:30am 24.2 SSW 14 17 1012.7 - - - - - - - - -
22/03:00am 24.3 SSW 15 18 1012.6 - - - - - - - - -
22/02:30am 24.7 SSW 17 22 1012.7 - - - - - - - - -
22/02:00am 24.8 SSW 18 22 1012.9 - - - - - - - - -
22/01:30am 24.9 SW 18 22 1013.2 - - - - - - - - -
22/01:00am 25.0 SW 20 23 1013.3 - - - - - - - - -
22/12:30am 24.9 SW 18 23 1013.5 - - - - - - - - -
22/12:00am 25.0 SW 17 21 1013.8 - - - - - - - - -
 
Date/Time
WST
Temp

°C
Wind Pressure Rain
since 9am
mm
Weather Cloud Vis
km
Sea
Height
m
Swell
Dir
 
Speed
knots
Gust
knots
hPa Trend Height
m
Period
s
Dir
21/11:30pm 25.3 SW 19 22 1014.0 - - - - - - - - -
21/11:00pm 25.4 SSW 19 23 1014.3 - - - - - - - - -
21/10:30pm 25.4 SW 16 18 1014.7 - - - - - - - - -
21/10:00pm 25.3 SW 15 19 1015.0 - - - - - - - - -
21/09:30pm 25.1 SSW 14 16 1015.1 - - - - - - - - -
21/09:00pm 25.1 SW 15 18 1015.2 - - - - - - - - -
21/08:30pm 25.0 SW 14 17 1015.1 - - - - - - - - -
21/08:00pm 25.0 SW 15 18 1015.1 - - - - - - - - -
21/07:30pm 25.0 SW 15 19 1014.9 - - - - - - - - -
21/07:00pm 24.9 SW 14 16 1014.8 - - - - - - - - -
21/06:30pm 25.0 WSW 15 18 1014.5 - - - - - - - - -
21/06:00pm 25.4 WSW 15 18 1014.4 - - - - - - - - -
21/05:30pm 26.0 WSW 15 17 1014.2 - - - - - - - - -
21/05:00pm 26.6 WSW 14 16 1013.9 - - - - - - - - -
21/04:30pm 27.3 WSW 14 16 1013.8 - - - - - - - - -
21/04:00pm 27.7 WSW 14 16 1013.9 - - - - - - - - -
21/03:30pm 28.0 WSW 14 17 1013.9 - - - - - - - - -
21/03:00pm 28.0 WSW 14 16 1014.2 - - - - - - - - -
21/02:30pm 27.8 WSW 14 16 1014.2 - - - - - - - - -
21/02:00pm 28.2 WSW 14 16 1014.5 - - - - - - - - -
21/01:30pm 28.1 WSW 14 16 1014.8 - - - - - - - - -
21/01:00pm 28.7 W 13 15 1015.3 - - - - - - - - -
21/12:30pm 27.8 W 12 15 1015.6 - - - - - - - - -
21/12:00pm 27.8 WSW 11 14 1016.0 - - - - - - - - -
21/11:30am 27.7 WSW 11 14 1016.2 - - - - - - - - -
21/11:00am 27.4 WSW 12 15 1016.5 - - - - - - - - -
21/10:30am 27.5 WSW 12 14 1016.7 - - - - - - - - -
21/10:00am 26.8 WSW 11 14 1016.9 - - - - - - - - -
21/09:30am 26.8 WSW 9 12 1017.1 - - - - - - - - -
21/09:00am 25.7 WSW 11 13 1017.0 - - - - - - - - -
21/08:30am 25.4 SW 13 15 1016.7 - - - - - - - - -
21/08:00am 24.9 SW 14 16 1016.6 - - - - - - - - -
21/07:30am 24.2 SW 15 17 1016.5 - - - - - - - - -
21/07:00am 23.6 SW 14 16 1016.2 - - - - - - - - -
21/06:30am 22.9 SW 14 16 1016.0 - - - - - - - - -
21/06:00am 22.3 SW 16 18 1015.5 - - - - - - - - -
21/05:30am 22.2 SSW 17 20 1014.8 - - - - - - - - -
21/05:00am 22.5 SW 17 20 1014.8 - - - - - - - - -
21/04:30am 23.0 SW 17 20 1014.7 - - - - - - - - -
21/04:00am 22.8 SW 16 19 1014.5 - - - - - - - - -
21/03:30am 23.0 SW 16 19 1014.4 - - - - - - - - -
21/03:00am 23.0 SW 16 20 1014.4 - - - - - - - - -
21/02:30am 23.2 SW 19 23 1014.3 - - - - - - - - -
21/02:00am 22.9 SW 17 20 1014.6 - - - - - - - - -
21/01:30am 23.1 SW 18 21 1014.7 - - - - - - - - -
21/01:00am 23.1 SW 18 21 1015.0 - - - - - - - - -
21/12:30am 22.9 WSW 17 21 1015.3 - - - - - - - - -
21/12:00am 23.0 WSW 18 22 1015.2 - - - - - - - - -
 
Date/Time
WST
Temp

°C
Wind Pressure Rain
since 9am
mm
Weather Cloud Vis
km
Sea
Height
m
Swell
Dir
 
Speed
knots
Gust
knots
hPa Trend Height
m
Period
s
Dir
20/11:30pm 23.0 WSW 18 20 1015.5 - - - - - - - - -
20/11:00pm 23.2 WSW 16 19 1015.9 - - - - - - - - -
20/10:30pm 23.1 WSW 14 18 1016.1 - - - - - - - - -
20/10:00pm 23.2 WSW 14 17 1016.2 - - - - - - - - -
20/09:30pm 23.2 W 14 16 1016.2 - - - - - - - - -
20/09:00pm 23.4 WSW 14 16 1016.0 - - - - - - - - -
20/08:30pm 23.3 W 14 17 1015.7 - - - - - - - - -
20/08:00pm 23.3 W 15 17 1015.5 - - - - - - - - -
20/07:30pm 23.4 W 16 18 1015.2 - - - - - - - - -
20/07:00pm 23.5 W 14 16 1014.7 - - - - - - - - -
20/06:30pm 23.8 W 14 18 1014.3 - - - - - - - - -
20/06:00pm 24.4 W 13 16 1014.2 - - - - - - - - -
20/05:30pm 25.3 W 13 16 1013.8 - - - - - - - - -
20/05:00pm 26.1 W 13 15 1013.6 - - - - - - - - -
20/04:30pm 26.2 W 13 15 1013.5 - - - - - - - - -
20/04:00pm 27.2 W 13 15 1013.5 - - - - - - - - -
20/03:30pm 27.4 W 13 15 1013.6 - - - - - - - - -
20/03:00pm 27.7 W 13 15 1013.7 - - - - - - - - -
20/02:30pm 27.7 W 12 15 1013.7 - - - - - - - - -
20/02:00pm 27.5 W 12 14 1014.0 - - - - - - - - -
20/01:30pm 27.8 W 13 15 1014.3 - - - - - - - - -
20/01:00pm 27.9 W 12 15 1014.6 - - - - - - - - -
20/12:30pm 27.8 W 11 14 1014.9 - - - - - - - - -
20/12:00pm 28.2 W 10 14 1015.2 - - - - - - - - -
20/11:30am 27.9 WSW 10 13 1015.5 - - - - - - - - -
20/11:00am 28.1 WSW 8 10 1015.9 - - - - - - - - -
20/10:30am 27.8 WSW 9 12 1016.1 - - - - - - - - -
20/10:00am 26.9 SW 8 11 1016.3 - - - - - - - - -
20/09:30am 26.2 SSW 10 12 1016.4 - - - - - - - - -
20/09:00am 26.3 SW 12 14 1016.3 - - - - - - - - -
20/08:30am 25.3 SSW 13 16 1016.0 - - - - - - - - -
20/08:00am 24.4 SW 13 16 1016.1 - - - - - - - - -
20/07:30am 24.1 SW 13 15 1015.8 - - - - - - - - -
20/07:00am 23.0 SW 13 16 1015.6 - - - - - - - - -
20/06:30am 22.3 SSW 15 17 1015.3 - - - - - - - - -
20/06:00am 21.5 SW 14 17 1015.1 - - - - - - - - -
20/05:30am 21.1 SSW 15 18 1014.7 - - - - - - - - -
20/05:00am 21.4 SSW 17 19 1014.3 - - - - - - - - -
20/04:30am 21.6 SSW 18 22 1014.1 - - - - - - - - -
20/04:00am 21.8 SSW 18 23 1014.0 - - - - - - - - -
20/03:30am 22.0 SSW 18 22 1013.7 - - - - - - - - -
20/03:00am 22.3 SW 20 23 1013.4 - - - - - - - - -
20/02:30am 22.6 SW 19 23 1013.4 - - - - - - - - -
20/02:00am 22.9 SW 20 23 1013.6 - - - - - - - - -
20/01:30am 23.1 SW 20 25 1013.6 - - - - - - - - -
20/01:00am 23.1 SW 19 24 1013.8 - - - - - - - - -
20/12:30am 23.3 SW 19 24 1014.0 - - - - - - - - -
20/12:00am 23.3 WSW 20 22 1014.4 - - - - - - - - -
 
Date/Time
WST
Temp

°C
Wind Pressure Rain
since 9am
mm
Weather Cloud Vis
km
Sea
Height
m
Swell
Dir
 
Speed
knots
Gust
knots
hPa Trend Height
m
Period
s
Dir
19/11:30pm 23.2 WSW 17 21 1014.5 - - - - - - - - -
19/11:00pm 23.2 WSW 18 21 1014.8 - - - - - - - - -
19/10:30pm 23.4 WSW 20 23 1014.8 - - - - - - - - -
19/10:00pm 23.5 WSW 18 22 1015.0 - - - - - - - - -
19/09:30pm 23.6 WSW 19 23 1014.8 - - - - - - - - -
19/09:00pm 23.6 WSW 19 22 1014.8 - - - - - - - - -
19/08:30pm 23.7 WSW 18 22 1014.5 - - - - - - - - -
19/08:00pm 23.8 WSW 19 22 1014.2 - - - - - - - - -
19/07:30pm 24.0 W 18 22 1014.0 - - - - - - - - -
19/07:00pm 23.9 W 18 23 1013.6 - - - - - - - - -
19/06:30pm 24.1 WSW 19 22 1013.2 - - - - - - - - -
19/06:00pm 24.7 WSW 20 24 1012.8 - - - - - - - - -

Other Formats:

Comma delimited format used in spreadsheet applications
http://www.bom.gov.au/fwo/IDW60701/IDW60701.94307.axf

JavaScript Object Notation format (JSON) in row-major order
http://www.bom.gov.au/fwo/IDW60701/IDW60701.94307.json